Time;durP1;ratioP1;P1;durP2;ratioP2;P2;SDS_P1;SDS_P2;PMS_P1;PMS_P2;Temp;Humidity;BMP_temperature;BMP_pressure;BME280_temperature;BME280_humidity;BME280_pressure;Samples;Min_cycle;Max_cycle;Signal;HPM_P1;HPM_P2
2022/07/03 00:00:38;;;;;;;1.85;1.75;;;19.10;99.90;;;;;;5118703;28;20061;-69
2022/07/03 00:03:04;;;;;;;2.30;2.10;;;19.10;99.90;;;;;;5120228;28;20703;-70
2022/07/03 00:05:29;;;;;;;2.13;1.92;;;19.20;99.90;;;;;;5120482;28;20036;-70
2022/07/03 00:07:56;;;;;;;4.43;2.10;;;19.10;99.90;;;;;;5120466;28;20035;-70
2022/07/03 00:10:22;;;;;;;5.68;2.42;;;19.10;99.90;;;;;;5118944;28;20063;-69
2022/07/03 00:12:47;;;;;;;3.00;2.40;;;19.10;99.90;;;;;;5118826;28;20055;-70
2022/07/03 00:15:13;;;;;;;3.17;2.25;;;19.10;99.90;;;;;;5120223;28;20119;-70
2022/07/03 00:17:38;;;;;;;3.92;2.00;;;19.10;99.90;;;;;;5119454;28;20551;-70
2022/07/03 00:20:05;;;;;;;5.43;2.30;;;19.00;99.90;;;;;;5118575;28;20043;-70
2022/07/03 00:22:33;;;;;;;3.67;2.30;;;19.00;99.90;;;;;;5119247;28;20050;-69
2022/07/03 00:25:04;;;;;;;4.43;1.83;;;19.00;99.90;;;;;;5119769;28;20048;-69
2022/07/03 00:27:33;;;;;;;1.67;1.52;;;19.00;99.90;;;;;;5119084;28;20043;-70
2022/07/03 00:30:00;;;;;;;5.00;1.67;;;18.90;99.90;;;;;;5119698;28;20039;-70
2022/07/03 00:32:27;;;;;;;2.42;1.80;;;18.90;99.90;;;;;;5119383;28;20042;-70
2022/07/03 00:34:56;;;;;;;3.50;2.00;;;18.80;99.90;;;;;;5118627;28;20070;-70
2022/07/03 00:37:22;;;;;;;4.28;1.98;;;18.80;99.90;;;;;;5119172;28;20050;-70
2022/07/03 00:39:48;;;;;;;3.50;2.00;;;18.70;99.90;;;;;;5118998;28;20039;-70
2022/07/03 00:42:15;;;;;;;2.65;1.75;;;18.70;99.90;;;;;;5118668;28;20035;-67
2022/07/03 00:44:48;;;;;;;4.55;1.88;;;18.70;99.90;;;;;;5118660;28;20036;-69
2022/07/03 00:47:15;;;;;;;3.50;2.13;;;18.70;99.90;;;;;;5119104;28;20052;-68
2022/07/03 00:49:45;;;;;;;2.17;1.60;;;18.60;99.90;;;;;;5119250;28;20570;-68
2022/07/03 00:52:12;;;;;;;7.22;1.98;;;18.50;99.90;;;;;;5119309;28;20205;-69
2022/07/03 00:54:44;;;;;;;4.15;1.75;;;18.60;99.90;;;;;;5117686;28;20499;-69
2022/07/03 00:57:14;;;;;;;5.57;2.03;;;18.50;99.90;;;;;;5099963;28;20040;-69
2022/07/03 00:59:40;;;;;;;2.33;1.92;;;18.50;99.90;;;;;;5118437;28;20269;-69
2022/07/03 01:02:08;;;;;;;4.00;2.05;;;18.50;99.90;;;;;;5117089;28;20051;-70
2022/07/03 01:04:49;;;;;;;2.33;1.80;;;18.50;99.90;;;;;;5118048;28;20082;-70
2022/07/03 01:07:56;;;;;;;3.05;1.90;;;18.40;99.90;;;;;;5120020;28;20491;-70
2022/07/03 01:10:37;;;;;;;2.63;1.90;;;18.40;99.90;;;;;;5106750;28;20081;-70
2022/07/03 01:13:13;;;;;;;4.22;2.10;;;18.30;99.90;;;;;;5118642;28;20432;-70
2022/07/03 01:16:01;;;;;;;3.42;2.10;;;18.30;99.90;;;;;;5116701;28;20046;-70
2022/07/03 01:19:10;;;;;;;3.75;2.22;;;18.20;99.90;;;;;;5117029;28;20043;-70
2022/07/03 01:21:42;;;;;;;3.72;2.00;;;18.20;99.90;;;;;;5057958;28;20044;-70
2022/07/03 01:24:39;;;;;;;3.97;2.15;;;18.20;99.90;;;;;;5057822;28;20056;-70
2022/07/03 01:27:10;;;;;;;5.80;2.67;;;18.20;99.90;;;;;;5075062;28;20044;-70
2022/07/03 01:29:47;;;;;;;6.95;2.33;;;18.10;99.90;;;;;;5075379;28;20045;-70
2022/07/03 01:32:14;;;;;;;3.28;2.17;;;18.10;99.90;;;;;;5057506;28;20040;-70
2022/07/03 01:34:44;;;;;;;3.22;2.50;;;18.10;99.90;;;;;;5074664;28;20128;-70
2022/07/03 01:37:15;;;;;;;5.85;2.47;;;18.00;99.90;;;;;;5057586;28;20098;-70
2022/07/03 01:39:44;;;;;;;5.80;2.38;;;18.10;99.90;;;;;;5074072;28;20045;-70
2022/07/03 01:42:11;;;;;;;4.30;2.15;;;18.00;99.90;;;;;;5074360;28;20535;-69
2022/07/03 01:44:39;;;;;;;6.13;2.70;;;17.90;99.90;;;;;;5074574;28;20055;-70
2022/07/03 01:47:05;;;;;;;3.97;2.40;;;17.80;99.90;;;;;;5058066;28;20076;-69
2022/07/03 01:49:34;;;;;;;5.65;2.42;;;17.80;99.90;;;;;;5074303;28;20149;-70
2022/07/03 01:52:02;;;;;;;6.30;2.40;;;17.80;99.90;;;;;;5074327;28;20044;-70
2022/07/03 01:54:29;;;;;;;4.03;2.53;;;17.80;99.90;;;;;;5059539;28;20036;-69
2022/07/03 01:56:55;;;;;;;5.13;2.80;;;17.70;99.90;;;;;;5117606;28;20039;-70
2022/07/03 01:59:21;;;;;;;12.02;2.70;;;17.70;99.90;;;;;;5115874;28;20535;-69
2022/07/03 02:02:04;;;;;;;4.15;2.45;;;17.60;99.90;;;;;;5117787;28;20475;-70
2022/07/03 02:04:37;;;;;;;3.80;2.58;;;17.60;99.90;;;;;;5116650;28;20039;-69
2022/07/03 02:07:20;;;;;;;4.82;2.60;;;17.50;99.90;;;;;;5116187;28;20047;-70
2022/07/03 02:10:09;;;;;;;2.85;2.53;;;17.50;99.90;;;;;;5116457;28;20046;-69
2022/07/03 02:13:01;;;;;;;3.53;2.47;;;17.50;99.90;;;;;;5115739;28;20071;-69
2022/07/03 02:15:32;;;;;;;5.13;2.78;;;17.40;99.90;;;;;;5117441;28;20139;-70
2022/07/03 02:18:07;;;;;;;3.33;2.50;;;17.40;99.90;;;;;;5116639;28;20364;-70
2022/07/03 02:20:39;;;;;;;3.45;2.80;;;17.30;99.90;;;;;;5117598;28;20387;-70
2022/07/03 02:23:07;;;;;;;4.15;3.20;;;17.30;99.90;;;;;;5117693;28;20039;-70
2022/07/03 02:25:38;;;;;;;5.45;3.20;;;17.20;99.90;;;;;;5117228;28;20072;-69
2022/07/03 02:28:41;;;;;;;4.10;3.47;;;17.20;99.90;;;;;;5115228;28;20482;-69
2022/07/03 02:31:09;;;;;;;5.18;3.28;;;17.20;99.90;;;;;;5096707;28;20051;-70
2022/07/03 02:33:38;;;;;;;6.32;3.55;;;17.20;99.90;;;;;;5116702;28;20039;-70
2022/07/03 02:36:06;;;;;;;10.23;3.65;;;17.10;99.90;;;;;;5116773;28;20035;-70
2022/07/03 02:38:31;;;;;;;5.03;3.50;;;17.10;99.90;;;;;;5117146;28;20330;-69
2022/07/03 02:41:03;;;;;;;4.93;3.38;;;17.10;99.90;;;;;;5116589;28;20100;-70
2022/07/03 02:43:47;;;;;;;5.57;3.25;;;17.10;99.90;;;;;;5117305;28;20150;-70
2022/07/03 02:49:22;;;;;;;5.22;2.88;;;17.00;99.90;;;;;;5117716;28;20052;-70
2022/07/03 02:52:29;;;;;;;3.78;2.75;;;17.00;99.90;;;;;;5121634;28;20070;-70
2022/07/03 02:54:59;;;;;;;4.88;2.92;;;17.00;99.90;;;;;;5107136;28;20051;-70
2022/07/03 02:57:39;;;;;;;3.90;2.60;;;16.90;99.90;;;;;;5121139;28;20108;-70
2022/07/03 03:00:07;;;;;;;6.40;3.00;;;16.90;99.90;;;;;;5121866;27;20031;-70
2022/07/03 03:02:45;;;;;;;4.00;3.00;;;16.90;99.90;;;;;;5120891;28;20047;-70
2022/07/03 03:05:36;;;;;;;6.47;3.28;;;16.90;99.90;;;;;;5119335;28;20032;-70
2022/07/03 03:08:11;;;;;;;5.78;3.30;;;16.80;99.90;;;;;;5120041;28;20044;-70
2022/07/03 03:10:38;;;;;;;3.40;2.60;;;16.80;99.90;;;;;;5119554;28;20054;-70
2022/07/03 03:13:16;;;;;;;3.30;3.00;;;16.80;99.90;;;;;;5117876;28;20043;-70
2022/07/03 03:16:24;;;;;;;5.32;2.75;;;16.80;99.90;;;;;;5117383;28;20095;-70
2022/07/03 03:18:49;;;;;;;3.35;2.75;;;16.70;99.90;;;;;;5113504;28;20130;-70
2022/07/03 03:21:19;;;;;;;4.55;3.30;;;16.60;99.90;;;;;;5117993;28;20079;-70
2022/07/03 03:23:51;;;;;;;3.72;2.95;;;16.60;99.90;;;;;;5122444;28;20067;-68
2022/07/03 03:26:24;;;;;;;7.80;2.85;;;16.70;99.90;;;;;;5121153;28;20039;-68
2022/07/03 03:28:51;;;;;;;5.43;2.60;;;16.60;99.90;;;;;;5120166;28;20073;-68
2022/07/03 03:31:19;;;;;;;4.03;3.22;;;16.60;99.90;;;;;;5119987;28;20131;-68
2022/07/03 03:33:47;;;;;;;5.53;3.53;;;16.70;99.90;;;;;;5119302;28;20043;-69
2022/07/03 03:36:19;;;;;;;4.25;3.50;;;16.70;99.90;;;;;;5118365;28;20103;-68
2022/07/03 03:38:46;;;;;;;3.80;3.22;;;16.70;99.90;;;;;;5119965;27;20036;-69
2022/07/03 03:41:12;;;;;;;6.25;3.80;;;16.70;99.90;;;;;;5119503;27;20046;-68
2022/07/03 03:43:38;;;;;;;10.25;4.22;;;16.80;99.90;;;;;;5117885;28;20114;-68
2022/07/03 03:46:04;;;;;;;6.03;3.90;;;16.70;99.90;;;;;;5119218;28;20875;-69
2022/07/03 03:48:34;;;;;;;8.32;3.70;;;16.80;99.90;;;;;;5119989;28;20490;-68
2022/07/03 03:51:01;;;;;;;3.78;3.40;;;16.80;99.90;;;;;;5119670;28;20040;-68
2022/07/03 03:53:28;;;;;;;6.43;3.55;;;16.90;99.90;;;;;;5119033;28;20143;-68
2022/07/03 03:56:04;;;;;;;3.78;3.08;;;16.80;99.90;;;;;;5119118;28;20052;-68
2022/07/03 03:58:33;;;;;;;4.60;3.35;;;16.90;99.90;;;;;;5118395;28;20043;-68
2022/07/03 04:01:00;;;;;;;3.65;3.30;;;16.90;99.90;;;;;;5119227;28;20066;-68
2022/07/03 04:03:27;;;;;;;4.07;3.13;;;16.90;99.90;;;;;;5118981;28;20047;-68
2022/07/03 04:05:53;;;;;;;6.57;3.70;;;16.90;99.90;;;;;;5119548;28;20050;-68
2022/07/03 04:08:21;;;;;;;5.97;3.90;;;17.00;99.90;;;;;;5117969;28;20066;-68
2022/07/03 04:10:47;;;;;;;6.10;3.67;;;17.20;99.90;;;;;;5118479;28;20047;-69
2022/07/03 04:13:13;;;;;;;5.57;3.38;;;17.30;99.90;;;;;;5118302;28;20439;-69
2022/07/03 04:15:39;;;;;;;4.85;3.75;;;17.30;99.90;;;;;;5118970;28;20032;-68
2022/07/03 04:18:04;;;;;;;5.20;3.45;;;17.40;99.90;;;;;;5119554;28;20121;-68
2022/07/03 04:20:30;;;;;;;4.63;3.72;;;17.50;99.90;;;;;;5119479;28;20067;-68
2022/07/03 04:22:57;;;;;;;5.75;3.72;;;17.60;99.90;;;;;;5119124;28;20467;-69
2022/07/03 04:25:22;;;;;;;6.25;3.90;;;17.60;99.90;;;;;;5119419;28;20048;-69
2022/07/03 04:27:48;;;;;;;5.07;3.58;;;17.60;99.90;;;;;;5118522;28;20061;-69
2022/07/03 04:30:13;;;;;;;6.75;3.88;;;17.70;99.90;;;;;;5118835;28;20058;-69
2022/07/03 04:32:39;;;;;;;8.68;4.28;;;17.80;99.90;;;;;;5119593;28;20031;-69
2022/07/03 04:35:05;;;;;;;7.60;4.13;;;18.00;99.90;;;;;;5122261;28;20111;-69
2022/07/03 04:37:31;;;;;;;8.63;4.60;;;18.10;99.90;;;;;;5118997;28;20436;-69
2022/07/03 04:39:57;;;;;;;6.13;3.95;;;18.00;99.90;;;;;;5119223;28;20055;-69
2022/07/03 04:42:23;;;;;;;6.32;4.57;;;18.10;99.90;;;;;;5118097;28;20036;-69
2022/07/03 04:44:48;;;;;;;4.28;3.88;;;18.10;99.90;;;;;;5119563;28;20595;-69
2022/07/03 04:47:15;;;;;;;6.47;4.53;;;18.10;99.90;;;;;;5118011;28;20097;-69
2022/07/03 04:49:41;;;;;;;5.32;4.35;;;18.00;99.90;;;;;;5119005;28;20073;-69
2022/07/03 04:52:07;;;;;;;6.57;4.63;;;18.00;99.90;;;;;;5118024;28;20043;-69
2022/07/03 04:54:33;;;;;;;6.93;4.78;;;17.90;99.90;;;;;;5117711;28;20223;-69
2022/07/03 04:56:59;;;;;;;5.00;4.25;;;17.80;99.90;;;;;;5118662;28;20047;-69
2022/07/03 04:59:24;;;;;;;6.40;4.57;;;17.80;99.90;;;;;;5117657;28;20114;-69
2022/07/03 05:01:50;;;;;;;7.93;5.00;;;17.80;99.90;;;;;;5117715;28;20043;-69
2022/07/03 05:04:16;;;;;;;10.57;5.10;;;17.70;99.90;;;;;;5119176;28;20031;-69
2022/07/03 05:06:42;;;;;;;5.63;4.45;;;17.70;99.90;;;;;;5118726;28;20046;-68
2022/07/03 05:09:08;;;;;;;6.13;5.18;;;17.60;99.90;;;;;;5118893;28;20036;-69
2022/07/03 05:11:33;;;;;;;11.07;4.82;;;17.60;99.90;;;;;;5118574;28;20120;-69
2022/07/03 05:13:59;;;;;;;8.00;4.68;;;17.60;99.90;;;;;;5116016;28;20115;-69
2022/07/03 05:16:24;;;;;;;8.38;4.85;;;17.60;99.90;;;;;;5118175;28;20093;-68
2022/07/03 05:18:50;;;;;;;8.52;5.57;;;17.60;99.90;;;;;;5118390;28;20515;-68
2022/07/03 05:21:15;;;;;;;10.75;5.35;;;17.60;99.90;;;;;;5117732;28;20046;-68
2022/07/03 05:23:41;;;;;;;8.52;5.28;;;17.60;99.90;;;;;;5118100;28;20043;-69
2022/07/03 05:26:07;;;;;;;7.50;5.18;;;17.80;99.90;;;;;;5118702;28;20047;-68
2022/07/03 05:28:32;;;;;;;5.47;4.97;;;17.90;99.90;;;;;;5118085;28;20077;-68
2022/07/03 05:30:58;;;;;;;6.95;4.72;;;18.10;99.90;;;;;;5117346;28;20043;-69
2022/07/03 05:33:23;;;;;;;8.60;5.45;;;18.10;99.90;;;;;;5115744;28;20107;-69
2022/07/03 05:35:49;;;;;;;9.55;5.10;;;18.30;99.90;;;;;;5116105;28;20043;-68
2022/07/03 05:39:31;;;;;;;7.03;4.43;;;18.40;99.90;;;;;;5118087;28;20119;-69
2022/07/03 05:41:00;;;;;;;7.65;4.82;;;18.70;99.90;;;;;;5119445;28;20480;-69
2022/07/03 05:43:26;;;;;;;8.88;4.20;;;18.90;99.90;;;;;;5119188;28;20047;-69
2022/07/03 05:45:51;;;;;;;7.15;4.10;;;19.10;99.90;;;;;;5118256;28;20107;-69
2022/07/03 05:48:17;;;;;;;5.22;3.88;;;19.30;99.90;;;;;;5117644;28;20384;-68
2022/07/03 05:50:42;;;;;;;6.95;3.97;;;19.50;99.90;;;;;;5117745;28;20116;-69
2022/07/03 05:53:08;;;;;;;6.80;3.67;;;19.70;99.90;;;;;;5115559;28;20044;-69
2022/07/03 05:55:33;;;;;;;4.88;3.47;;;19.90;99.90;;;;;;5117432;28;20488;-69
2022/07/03 05:57:59;;;;;;;6.18;3.10;;;20.00;99.90;;;;;;5117559;28;20036;-68
2022/07/03 06:00:25;;;;;;;6.00;3.15;;;20.20;99.90;;;;;;5117870;28;20063;-68
2022/07/03 06:02:50;;;;;;;4.65;2.50;;;20.40;99.90;;;;;;5118056;28;20043;-68
2022/07/03 06:05:16;;;;;;;4.22;2.85;;;20.60;99.90;;;;;;5117405;28;20047;-68
2022/07/03 06:07:41;;;;;;;4.30;2.67;;;20.60;99.90;;;;;;5117625;28;20123;-68
2022/07/03 06:10:07;;;;;;;6.72;2.38;;;20.70;99.90;;;;;;5116932;28;20089;-68
2022/07/03 06:12:33;;;;;;;4.55;2.72;;;20.80;99.90;;;;;;5117168;28;20114;-69
2022/07/03 06:14:58;;;;;;;4.65;2.53;;;20.80;99.90;;;;;;5118013;28;20042;-69
2022/07/03 06:17:24;;;;;;;3.08;2.30;;;20.90;99.90;;;;;;5116312;28;20054;-69
2022/07/03 06:19:49;;;;;;;6.75;2.65;;;20.90;99.90;;;;;;5117683;28;20046;-69
2022/07/03 06:22:15;;;;;;;5.07;2.20;;;21.00;99.90;;;;;;5117545;28;20043;-69
2022/07/03 06:24:40;;;;;;;4.03;2.40;;;21.20;99.90;;;;;;5117149;28;20058;-69
2022/07/03 06:27:06;;;;;;;5.30;2.17;;;21.30;99.90;;;;;;5116686;28;20080;-68
2022/07/03 06:29:32;;;;;;;5.35;1.77;;;21.40;99.90;;;;;;5114824;28;20175;-69
2022/07/03 06:31:57;;;;;;;3.45;1.90;;;21.50;99.90;;;;;;5114460;28;20031;-68
2022/07/03 06:34:23;;;;;;;4.13;1.75;;;21.60;99.90;;;;;;5112488;28;20047;-69
2022/07/03 06:36:48;;;;;;;3.33;1.23;;;21.50;99.90;;;;;;5112880;28;20042;-67
2022/07/03 06:39:14;;;;;;;5.32;1.80;;;21.60;99.90;;;;;;5114391;28;20047;-69
2022/07/03 06:41:40;;;;;;;6.40;1.45;;;21.70;99.90;;;;;;5114425;28;20127;-69
2022/07/03 06:44:05;;;;;;;4.82;1.50;;;21.80;99.90;;;;;;5115541;28;20039;-69
2022/07/03 06:46:31;;;;;;;3.97;1.20;;;21.90;99.90;;;;;;5116115;28;20088;-69
2022/07/03 06:48:56;;;;;;;4.03;1.40;;;22.00;99.90;;;;;;5117251;28;20060;-69
2022/07/03 06:51:22;;;;;;;4.00;1.40;;;22.10;99.90;;;;;;5109675;28;20372;-69
2022/07/03 06:53:47;;;;;;;3.55;1.73;;;22.10;99.90;;;;;;5099096;28;20472;-69
2022/07/03 06:56:13;;;;;;;3.88;1.75;;;22.20;99.90;;;;;;5096316;28;20048;-69
2022/07/03 06:58:38;;;;;;;2.53;1.67;;;22.10;99.90;;;;;;5092042;28;20040;-69
2022/07/03 07:01:04;;;;;;;4.70;1.98;;;22.20;99.90;;;;;;5084539;28;20040;-69
2022/07/03 07:03:29;;;;;;;4.00;1.90;;;22.10;99.90;;;;;;5085022;28;20040;-69
2022/07/03 07:05:55;;;;;;;2.72;1.70;;;22.10;99.90;;;;;;5087333;28;20101;-69
2022/07/03 07:08:21;;;;;;;7.65;2.10;;;22.00;99.90;;;;;;5081732;28;20041;-69
2022/07/03 07:10:46;;;;;;;4.93;1.67;;;22.00;99.90;;;;;;5091520;28;20039;-69
2022/07/03 07:13:12;;;;;;;5.68;1.90;;;22.10;99.90;;;;;;5095776;28;20078;-69
2022/07/03 07:15:38;;;;;;;3.22;2.00;;;22.20;99.90;;;;;;5095762;28;20032;-69
2022/07/03 07:18:03;;;;;;;4.50;1.83;;;22.40;99.90;;;;;;5095053;28;20043;-69
2022/07/03 07:20:29;;;;;;;6.13;1.77;;;22.50;99.90;;;;;;5095896;28;20036;-69
2022/07/03 07:22:54;;;;;;;2.95;1.83;;;22.50;99.90;;;;;;5095351;28;20081;-69
2022/07/03 07:25:20;;;;;;;4.88;1.83;;;22.60;99.90;;;;;;5096007;28;20412;-69
2022/07/03 07:27:45;;;;;;;3.53;1.58;;;22.80;99.90;;;;;;5096451;28;20032;-69
2022/07/03 07:30:11;;;;;;;2.65;1.70;;;22.80;99.90;;;;;;5094881;28;20043;-69
2022/07/03 07:32:37;;;;;;;3.53;2.00;;;22.90;99.90;;;;;;5093905;28;20139;-69
2022/07/03 07:35:03;;;;;;;9.77;1.80;;;22.90;99.90;;;;;;5094434;28;20040;-69
2022/07/03 07:37:28;;;;;;;2.55;1.50;;;23.00;99.90;;;;;;5096726;28;20470;-69
2022/07/03 07:39:54;;;;;;;2.95;1.50;;;23.00;99.90;;;;;;5097395;28;20127;-69
2022/07/03 07:42:19;;;;;;;6.38;1.65;;;23.10;99.90;;;;;;5098766;28;20041;-69
2022/07/03 07:44:45;;;;;;;3.55;1.08;;;23.10;99.90;;;;;;5097498;28;20040;-69
2022/07/03 07:47:10;;;;;;;3.22;1.00;;;23.10;99.90;;;;;;5097664;28;20496;-69
2022/07/03 07:49:36;;;;;;;6.18;1.40;;;23.20;99.90;;;;;;5098485;28;20040;-69
2022/07/03 07:52:02;;;;;;;12.52;1.35;;;23.20;99.90;;;;;;5096547;28;20036;-69
2022/07/03 07:54:29;;;;;;;3.00;1.23;;;23.20;99.90;;;;;;5096963;28;20176;-69
2022/07/03 07:56:54;;;;;;;4.25;1.27;;;23.20;99.90;;;;;;5094941;28;20039;-69
2022/07/03 07:59:20;;;;;;;6.28;1.90;;;23.20;99.90;;;;;;5097232;28;20124;-69
2022/07/03 08:07:14;;;;;;;3.15;1.50;;;23.40;99.90;;;;;;5096454;28;20048;-70
2022/07/03 08:09:39;;;;;;;5.13;1.38;;;23.50;99.90;;;;;;5096213;28;20490;-69
2022/07/03 08:12:05;;;;;;;3.40;1.75;;;23.60;99.90;;;;;;5097755;28;20093;-69
2022/07/03 08:14:30;;;;;;;5.35;1.98;;;23.70;99.90;;;;;;5097833;28;20036;-69
2022/07/03 08:16:56;;;;;;;3.42;1.75;;;23.70;99.90;;;;;;5098083;28;20535;-69
2022/07/03 08:19:21;;;;;;;4.80;1.75;;;23.80;99.90;;;;;;5098068;28;20036;-69
2022/07/03 08:21:47;;;;;;;5.10;1.50;;;23.90;99.90;;;;;;5097961;28;20407;-69
2022/07/03 08:24:13;;;;;;;5.47;1.70;;;24.00;99.90;;;;;;5097799;28;20104;-69
2022/07/03 08:26:38;;;;;;;6.18;1.90;;;24.10;99.90;;;;;;5097253;28;20046;-69
2022/07/03 08:29:04;;;;;;;2.42;1.40;;;23.90;99.90;;;;;;5097871;28;20121;-69
2022/07/03 08:31:29;;;;;;;4.15;1.42;;;24.00;99.90;;;;;;5097338;28;20036;-69
2022/07/03 08:33:55;;;;;;;2.45;1.38;;;24.20;99.90;;;;;;5096493;28;20594;-70
2022/07/03 08:36:21;;;;;;;3.50;1.08;;;24.00;99.90;;;;;;5097135;28;20036;-70
2022/07/03 08:38:46;;;;;;;3.28;1.30;;;24.10;99.90;;;;;;5097107;28;20116;-69
2022/07/03 08:41:14;;;;;;;9.02;1.92;;;24.20;99.90;;;;;;5096729;28;20453;-69
2022/07/03 08:43:42;;;;;;;2.30;0.90;;;24.20;99.90;;;;;;5108105;28;20043;-69
2022/07/03 08:46:09;;;;;;;2.40;1.00;;;24.10;99.90;;;;;;5107558;28;20040;-69
2022/07/03 08:48:36;;;;;;;2.35;1.27;;;24.20;99.90;;;;;;5104171;28;20040;-69
2022/07/03 08:51:02;;;;;;;6.00;1.17;;;24.30;99.90;;;;;;5107639;28;20063;-69
2022/07/03 08:53:27;;;;;;;5.68;1.30;;;24.30;99.90;;;;;;5099518;28;20040;-70
2022/07/03 08:55:53;;;;;;;3.25;1.25;;;24.40;99.90;;;;;;5086565;28;20140;-70
2022/07/03 08:58:22;;;;;;;5.78;1.23;;;24.40;99.90;;;;;;5088485;28;20036;-69
2022/07/03 09:00:48;;;;;;;4.55;1.25;;;24.40;99.90;;;;;;5087846;28;20040;-69
2022/07/03 09:03:14;;;;;;;4.00;1.10;;;24.40;99.90;;;;;;5093415;28;20050;-69
2022/07/03 09:05:40;;;;;;;3.80;1.42;;;24.60;99.90;;;;;;5086491;28;20036;-69
2022/07/03 09:08:08;;;;;;;2.80;1.10;;;24.80;99.90;;;;;;5088490;28;20066;-70
2022/07/03 09:10:34;;;;;;;4.95;1.10;;;24.60;99.90;;;;;;5101312;28;20388;-69
2022/07/03 09:12:59;;;;;;;5.25;1.20;;;24.50;99.90;;;;;;5103934;27;20054;-69
2022/07/03 09:15:25;;;;;;;3.38;1.15;;;24.60;99.90;;;;;;5097014;28;20096;-69
2022/07/03 09:17:58;;;;;;;2.55;1.30;;;24.50;99.90;;;;;;5092815;28;20142;-69
2022/07/03 09:20:29;;;;;;;4.75;1.23;;;24.50;99.90;;;;;;5093339;28;20044;-69
2022/07/03 09:23:07;;;;;;;3.20;1.02;;;24.60;99.90;;;;;;5093178;28;20043;-69
2022/07/03 09:25:33;;;;;;;2.20;1.10;;;24.40;99.90;;;;;;5091487;28;20127;-69
2022/07/03 09:27:58;;;;;;;3.75;0.80;;;24.40;99.90;;;;;;5092009;28;20104;-69
2022/07/03 09:30:24;;;;;;;4.68;1.00;;;24.30;99.90;;;;;;5093339;28;20036;-69
2022/07/03 09:32:50;;;;;;;3.60;0.80;;;24.30;99.90;;;;;;5092751;28;20047;-69
2022/07/03 09:35:19;;;;;;;1.42;1.00;;;24.30;99.90;;;;;;5092439;28;20032;-69
2022/07/03 09:37:57;;;;;;;4.88;1.00;;;24.40;99.90;;;;;;5091863;28;20134;-69
2022/07/03 09:40:24;;;;;;;2.22;0.90;;;24.30;99.90;;;;;;5093116;28;20063;-68
2022/07/03 09:43:27;;;;;;;2.63;0.95;;;24.30;99.90;;;;;;5092863;28;20044;-68
2022/07/03 09:45:57;;;;;;;2.15;0.77;;;24.30;99.90;;;;;;5075261;28;20063;-69
2022/07/03 09:48:33;;;;;;;3.13;1.15;;;24.30;99.90;;;;;;5092993;28;20044;-69
2022/07/03 09:51:16;;;;;;;2.10;0.70;;;24.30;99.90;;;;;;5091917;28;20067;-69
2022/07/03 09:54:00;;;;;;;4.60;0.80;;;24.30;99.90;;;;;;5074868;28;20640;-69
2022/07/03 09:56:33;;;;;;;4.03;0.90;;;24.40;99.90;;;;;;5093080;28;20043;-68
2022/07/03 09:59:02;;;;;;;2.65;0.80;;;24.40;99.90;;;;;;5092779;28;20050;-69
2022/07/03 10:01:28;;;;;;;3.60;1.25;;;24.60;99.90;;;;;;5091247;28;20036;-69
2022/07/03 10:03:54;;;;;;;1.48;0.75;;;24.70;99.90;;;;;;5091192;28;20373;-69
2022/07/03 10:06:20;;;;;;;2.42;0.70;;;24.60;99.90;;;;;;5092840;28;20111;-69
2022/07/03 10:08:47;;;;;;;2.60;0.73;;;24.40;99.90;;;;;;5092584;28;20448;-69
2022/07/03 10:11:13;;;;;;;4.78;1.00;;;24.50;99.90;;;;;;5093051;28;20036;-69
2022/07/03 10:13:40;;;;;;;7.57;1.00;;;24.50;99.90;;;;;;5092454;28;20517;-69
2022/07/03 10:16:06;;;;;;;4.32;0.82;;;24.30;99.90;;;;;;5093314;28;20095;-69
2022/07/03 10:18:38;;;;;;;3.70;0.80;;;24.30;99.90;;;;;;5096685;28;20047;-69
2022/07/03 10:21:08;;;;;;;4.75;0.95;;;24.20;99.90;;;;;;5075755;28;20050;-69
2022/07/03 10:23:33;;;;;;;3.60;0.73;;;24.10;99.90;;;;;;5093133;28;20039;-70
2022/07/03 10:25:59;;;;;;;6.28;1.10;;;24.20;99.90;;;;;;5093394;28;20066;-70
2022/07/03 10:28:24;;;;;;;2.40;0.65;;;24.30;99.90;;;;;;5091737;28;20456;-69
2022/07/03 10:30:51;;;;;;;2.88;1.02;;;24.30;99.90;;;;;;5091581;28;20032;-69
2022/07/03 10:33:17;;;;;;;3.70;0.77;;;24.40;99.90;;;;;;5091420;28;20044;-69
2022/07/03 10:35:47;;;;;;;2.42;0.80;;;24.60;99.90;;;;;;5091859;28;20051;-69
2022/07/03 10:38:42;;;;;;;5.05;1.02;;;24.50;99.50;;;;;;5092588;28;20040;-69
2022/07/03 10:47:04;;;;;;;2.28;0.80;;;24.60;99.50;;;;;;5092230;28;20048;-69
2022/07/03 10:49:30;;;;;;;2.88;0.70;;;24.70;99.40;;;;;;5092531;28;20038;-69
2022/07/03 10:52:01;;;;;;;2.15;0.85;;;24.70;99.20;;;;;;5093672;28;20032;-69
2022/07/03 10:54:28;;;;;;;1.95;0.70;;;25.00;99.00;;;;;;5093668;28;20052;-69
2022/07/03 10:57:02;;;;;;;2.60;0.60;;;24.90;99.00;;;;;;5093377;28;20043;-68
2022/07/03 10:59:34;;;;;;;2.50;0.80;;;24.90;98.60;;;;;;5092049;28;20071;-68
2022/07/03 11:02:26;;;;;;;2.28;0.77;;;24.90;98.50;;;;;;5093350;28;20070;-69
2022/07/03 11:05:01;;;;;;;;;;;24.80;98.20;;;;;;5094312;28;20058;-69
2022/07/03 11:07:32;;;;;;;3.65;0.85;;;24.70;98.30;;;;;;5093596;28;19928;-69
2022/07/03 11:10:13;;;;;;;2.92;0.73;;;24.80;98.60;;;;;;5092245;28;20040;-69
2022/07/03 11:13:04;;;;;;;2.95;0.65;;;24.70;98.60;;;;;;5094534;28;20454;-70
2022/07/03 11:15:46;;;;;;;2.17;0.80;;;24.70;98.80;;;;;;5096566;28;20388;-70
2022/07/03 11:18:12;;;;;;;3.97;0.50;;;24.80;99.30;;;;;;5097797;28;20071;-69
2022/07/03 11:20:43;;;;;;;2.00;0.85;;;24.90;99.50;;;;;;5095858;28;20048;-69
2022/07/03 11:23:27;;;;;;;1.30;0.77;;;25.00;99.40;;;;;;5096096;28;20036;-69
2022/07/03 11:26:21;;;;;;;1.92;0.60;;;25.00;99.20;;;;;;5100151;28;20415;-69
2022/07/03 11:28:46;;;;;;;0.95;0.60;;;25.00;97.80;;;;;;5098649;28;20189;-69
2022/07/03 11:31:16;;;;;;;1.65;0.73;;;25.00;98.40;;;;;;5097255;28;20089;-69
2022/07/03 11:33:53;;;;;;;1.40;0.80;;;24.90;98.70;;;;;;5095280;28;20036;-69
2022/07/03 11:36:22;;;;;;;2.00;0.77;;;25.00;98.40;;;;;;5096596;28;20043;-69
2022/07/03 11:39:00;;;;;;;3.13;0.80;;;25.10;98.70;;;;;;5088564;28;20052;-69
2022/07/03 11:41:45;;;;;;;1.27;0.70;;;24.90;98.90;;;;;;5106189;28;20063;-70
2022/07/03 11:44:16;;;;;;;1.65;0.52;;;25.10;99.00;;;;;;5103119;28;20150;-70
2022/07/03 11:46:47;;;;;;;6.53;0.77;;;25.10;99.20;;;;;;5101791;28;20048;-70
2022/07/03 11:49:18;;;;;;;1.38;0.73;;;25.10;98.80;;;;;;5072630;28;20040;-68
2022/07/03 11:51:56;;;;;;;2.10;0.80;;;25.10;98.80;;;;;;5096658;28;20040;-69
2022/07/03 11:54:21;;;;;;;3.63;1.00;;;25.30;99.20;;;;;;5095328;28;20032;-70
2022/07/03 11:56:47;;;;;;;4.40;0.60;;;25.20;99.10;;;;;;5096416;28;20131;-69
2022/07/03 11:59:13;;;;;;;2.60;0.70;;;25.10;99.00;;;;;;5095441;28;20040;-70
2022/07/03 12:01:39;;;;;;;2.17;0.55;;;25.20;98.90;;;;;;5096416;28;20051;-69
2022/07/03 12:04:19;;;;;;;3.05;0.63;;;25.40;98.40;;;;;;5095998;28;20032;-69
2022/07/03 12:06:48;;;;;;;1.20;0.60;;;25.40;98.30;;;;;;5096330;28;20488;-69
2022/07/03 12:09:20;;;;;;;2.20;0.80;;;25.60;98.70;;;;;;5094939;28;20059;-69
2022/07/03 12:11:59;;;;;;;1.45;0.63;;;25.70;98.20;;;;;;5095081;28;20071;-69
2022/07/03 12:14:45;;;;;;;1.50;0.60;;;25.60;96.30;;;;;;5096441;28;20105;-69
2022/07/03 12:17:28;;;;;;;1.63;0.60;;;25.60;96.50;;;;;;5096280;28;20036;-69
2022/07/03 12:19:56;;;;;;;1.27;0.57;;;25.80;97.30;;;;;;5094630;28;20036;-69
2022/07/03 12:22:37;;;;;;;2.40;1.20;;;25.60;97.10;;;;;;5093500;28;20519;-69
2022/07/03 12:25:05;;;;;;;1.30;0.50;;;25.60;96.10;;;;;;5094726;28;20072;-69
2022/07/03 12:27:36;;;;;;;1.02;0.40;;;25.70;97.00;;;;;;5095684;28;20051;-69
2022/07/03 12:30:03;;;;;;;1.45;0.57;;;25.90;96.60;;;;;;5095118;28;20103;-70
2022/07/03 12:32:29;;;;;;;2.25;0.57;;;25.80;96.50;;;;;;5094849;28;20067;-69
2022/07/03 12:34:55;;;;;;;1.38;0.60;;;25.80;96.10;;;;;;5095503;28;20118;-70
2022/07/03 12:37:44;;;;;;;0.82;0.60;;;25.70;95.90;;;;;;5095760;28;20036;-70
2022/07/03 12:40:11;;;;;;;1.90;0.70;;;25.60;95.00;;;;;;5095487;28;20408;-70
2022/07/03 12:42:47;;;;;;;2.28;0.60;;;25.50;96.30;;;;;;5094268;28;20047;-69
2022/07/03 12:45:15;;;;;;;4.50;0.70;;;25.60;96.40;;;;;;5094792;28;20055;-69
2022/07/03 12:47:41;;;;;;;2.60;0.77;;;25.60;96.40;;;;;;5095332;28;20075;-69
2022/07/03 12:50:08;;;;;;;6.78;0.80;;;25.50;96.80;;;;;;5093561;28;20039;-69
2022/07/03 12:52:48;;;;;;;3.63;0.90;;;25.50;97.00;;;;;;5095664;28;20058;-70
2022/07/03 12:55:23;;;;;;;2.17;0.80;;;25.30;97.40;;;;;;5094901;28;20040;-69
2022/07/03 13:00:43;;;;;;;9.88;1.42;;;25.30;97.70;;;;;;5094973;28;20500;-69
2022/07/03 13:03:25;;;;;;;3.00;1.00;;;25.20;97.80;;;;;;5093280;28;20036;-70
2022/07/03 13:05:50;;;;;;;4.18;0.77;;;25.00;98.10;;;;;;5095416;28;20032;-69
2022/07/03 13:08:16;;;;;;;3.78;0.70;;;24.90;98.40;;;;;;5098925;28;20702;-69
2022/07/03 13:10:42;;;;;;;2.55;0.80;;;24.80;98.60;;;;;;5094704;28;20444;-69
2022/07/03 13:13:08;;;;;;;2.35;1.00;;;24.70;98.80;;;;;;5092786;28;20067;-69
2022/07/03 13:15:33;;;;;;;4.18;0.90;;;24.80;98.90;;;;;;5093933;28;20118;-69
2022/07/03 13:18:00;;;;;;;3.75;0.77;;;24.70;98.50;;;;;;5093982;28;20048;-70